sensor_id;sensor_type;location;lat;lon;timestamp;temperature;humidity
9998;DHT22;5038;53.064;8.624;2022-12-07T00:01:20;4.60;99.90
9998;DHT22;5038;53.064;8.624;2022-12-07T00:03:49;4.60;99.90
9998;DHT22;5038;53.064;8.624;2022-12-07T00:06:20;4.60;99.90
9998;DHT22;5038;53.064;8.624;2022-12-07T00:08:48;4.50;99.90
9998;DHT22;5038;53.064;8.624;2022-12-07T00:11:18;4.50;99.90
9998;DHT22;5038;53.064;8.624;2022-12-07T00:13:47;4.50;99.90
9998;DHT22;5038;53.064;8.624;2022-12-07T00:16:16;4.50;99.90
9998;DHT22;5038;53.064;8.624;2022-12-07T00:18:45;4.50;99.90
9998;DHT22;5038;53.064;8.624;2022-12-07T00:21:15;4.50;99.90
9998;DHT22;5038;53.064;8.624;2022-12-07T00:23:46;4.40;99.90
9998;DHT22;5038;53.064;8.624;2022-12-07T00:26:16;4.50;99.90
9998;DHT22;5038;53.064;8.624;2022-12-07T00:28:45;4.40;99.90
9998;DHT22;5038;53.064;8.624;2022-12-07T00:31:15;4.40;99.90
9998;DHT22;5038;53.064;8.624;2022-12-07T00:33:45;4.40;99.90
9998;DHT22;5038;53.064;8.624;2022-12-07T00:36:15;4.40;99.90
9998;DHT22;5038;53.064;8.624;2022-12-07T00:38:52;4.40;99.90
9998;DHT22;5038;53.064;8.624;2022-12-07T00:41:21;4.40;99.90
9998;DHT22;5038;53.064;8.624;2022-12-07T00:43:50;4.50;99.90
9998;DHT22;5038;53.064;8.624;2022-12-07T00:46:19;4.40;99.90
9998;DHT22;5038;53.064;8.624;2022-12-07T00:48:48;4.40;99.90
9998;DHT22;5038;53.064;8.624;2022-12-07T00:51:18;4.40;99.90
9998;DHT22;5038;53.064;8.624;2022-12-07T00:53:47;4.40;99.90
9998;DHT22;5038;53.064;8.624;2022-12-07T00:56:20;4.40;99.90
9998;DHT22;5038;53.064;8.624;2022-12-07T00:58:53;4.50;99.90
9998;DHT22;5038;53.064;8.624;2022-12-07T01:01:23;4.50;99.90
9998;DHT22;5038;53.064;8.624;2022-12-07T01:03:52;4.50;99.90
9998;DHT22;5038;53.064;8.624;2022-12-07T01:06:21;4.50;99.90
9998;DHT22;5038;53.064;8.624;2022-12-07T01:08:50;4.50;99.90
9998;DHT22;5038;53.064;8.624;2022-12-07T01:11:21;4.40;99.90
9998;DHT22;5038;53.064;8.624;2022-12-07T01:13:50;4.40;99.90
9998;DHT22;5038;53.064;8.624;2022-12-07T01:16:20;4.40;99.90
9998;DHT22;5038;53.064;8.624;2022-12-07T01:18:50;4.40;99.90
9998;DHT22;5038;53.064;8.624;2022-12-07T01:21:20;4.50;99.90
9998;DHT22;5038;53.064;8.624;2022-12-07T01:23:48;4.40;99.90
9998;DHT22;5038;53.064;8.624;2022-12-07T01:26:20;4.40;99.90
9998;DHT22;5038;53.064;8.624;2022-12-07T01:28:49;4.50;99.90
9998;DHT22;5038;53.064;8.624;2022-12-07T01:31:18;4.50;99.90
9998;DHT22;5038;53.064;8.624;2022-12-07T01:33:50;4.50;99.90
9998;DHT22;5038;53.064;8.624;2022-12-07T01:36:21;4.50;99.90
9998;DHT22;5038;53.064;8.624;2022-12-07T01:38:51;4.50;99.90
9998;DHT22;5038;53.064;8.624;2022-12-07T01:41:21;4.50;99.90
9998;DHT22;5038;53.064;8.624;2022-12-07T01:44:19;4.50;99.90
9998;DHT22;5038;53.064;8.624;2022-12-07T01:46:49;4.40;99.90
9998;DHT22;5038;53.064;8.624;2022-12-07T01:49:23;4.40;99.90
9998;DHT22;5038;53.064;8.624;2022-12-07T01:51:57;4.40;99.90
9998;DHT22;5038;53.064;8.624;2022-12-07T01:54:26;4.40;99.90
9998;DHT22;5038;53.064;8.624;2022-12-07T01:56:57;4.30;99.90
9998;DHT22;5038;53.064;8.624;2022-12-07T01:59:25;4.30;99.90
9998;DHT22;5038;53.064;8.624;2022-12-07T02:01:54;4.30;99.90
9998;DHT22;5038;53.064;8.624;2022-12-07T02:04:24;4.30;99.90
9998;DHT22;5038;53.064;8.624;2022-12-07T02:06:52;4.30;99.90
9998;DHT22;5038;53.064;8.624;2022-12-07T02:09:24;4.20;99.90
9998;DHT22;5038;53.064;8.624;2022-12-07T02:11:52;4.20;99.90
9998;DHT22;5038;53.064;8.624;2022-12-07T02:14:23;4.20;99.90
9998;DHT22;5038;53.064;8.624;2022-12-07T02:17:03;4.20;99.90
9998;DHT22;5038;53.064;8.624;2022-12-07T02:20:14;4.10;99.90
9998;DHT22;5038;53.064;8.624;2022-12-07T02:26:02;4.10;99.90
9998;DHT22;5038;53.064;8.624;2022-12-07T02:28:53;4.00;99.90
9998;DHT22;5038;53.064;8.624;2022-12-07T02:31:28;4.00;99.90
9998;DHT22;5038;53.064;8.624;2022-12-07T02:34:04;4.00;99.90
9998;DHT22;5038;53.064;8.624;2022-12-07T02:36:36;4.00;99.90
9998;DHT22;5038;53.064;8.624;2022-12-07T02:39:11;4.00;99.90
9998;DHT22;5038;53.064;8.624;2022-12-07T02:41:44;3.90;99.90
9998;DHT22;5038;53.064;8.624;2022-12-07T02:44:19;3.90;99.90
9998;DHT22;5038;53.064;8.624;2022-12-07T02:46:52;3.90;99.90
9998;DHT22;5038;53.064;8.624;2022-12-07T02:49:23;3.90;99.90
9998;DHT22;5038;53.064;8.624;2022-12-07T02:51:52;3.90;99.90
9998;DHT22;5038;53.064;8.624;2022-12-07T02:54:21;3.90;99.90
9998;DHT22;5038;53.064;8.624;2022-12-07T02:56:53;3.90;99.90
9998;DHT22;5038;53.064;8.624;2022-12-07T02:59:33;3.90;99.90
9998;DHT22;5038;53.064;8.624;2022-12-07T03:02:13;3.90;99.90
9998;DHT22;5038;53.064;8.624;2022-12-07T03:04:52;3.90;99.90
9998;DHT22;5038;53.064;8.624;2022-12-07T03:07:29;4.00;99.90
9998;DHT22;5038;53.064;8.624;2022-12-07T03:10:06;4.00;99.90
9998;DHT22;5038;53.064;8.624;2022-12-07T03:12:42;4.00;99.90
9998;DHT22;5038;53.064;8.624;2022-12-07T03:15:16;4.00;99.90
9998;DHT22;5038;53.064;8.624;2022-12-07T03:17:48;4.00;99.90
9998;DHT22;5038;53.064;8.624;2022-12-07T03:20:20;4.00;99.90
9998;DHT22;5038;53.064;8.624;2022-12-07T03:22:51;4.00;99.90
9998;DHT22;5038;53.064;8.624;2022-12-07T03:25:21;4.00;99.90
9998;DHT22;5038;53.064;8.624;2022-12-07T03:27:53;4.00;99.90
9998;DHT22;5038;53.064;8.624;2022-12-07T03:30:28;4.00;99.90
9998;DHT22;5038;53.064;8.624;2022-12-07T03:33:01;4.00;99.90
9998;DHT22;5038;53.064;8.624;2022-12-07T03:35:32;4.00;99.90
9998;DHT22;5038;53.064;8.624;2022-12-07T03:38:07;4.00;99.90
9998;DHT22;5038;53.064;8.624;2022-12-07T03:40:43;4.00;99.90
9998;DHT22;5038;53.064;8.624;2022-12-07T03:43:12;4.00;99.90
9998;DHT22;5038;53.064;8.624;2022-12-07T03:45:43;4.00;99.90
9998;DHT22;5038;53.064;8.624;2022-12-07T03:48:19;4.00;99.90
9998;DHT22;5038;53.064;8.624;2022-12-07T03:50:52;4.00;99.90
9998;DHT22;5038;53.064;8.624;2022-12-07T03:53:24;3.90;99.90
9998;DHT22;5038;53.064;8.624;2022-12-07T03:55:54;4.00;99.90
9998;DHT22;5038;53.064;8.624;2022-12-07T03:58:24;4.00;99.90
9998;DHT22;5038;53.064;8.624;2022-12-07T04:00:54;3.90;99.90
9998;DHT22;5038;53.064;8.624;2022-12-07T04:03:22;3.90;99.90
9998;DHT22;5038;53.064;8.624;2022-12-07T04:05:51;3.90;99.90
9998;DHT22;5038;53.064;8.624;2022-12-07T04:08:19;3.90;99.90
9998;DHT22;5038;53.064;8.624;2022-12-07T04:10:47;3.90;99.90
9998;DHT22;5038;53.064;8.624;2022-12-07T04:13:15;3.90;99.90
9998;DHT22;5038;53.064;8.624;2022-12-07T04:15:43;3.90;99.90
9998;DHT22;5038;53.064;8.624;2022-12-07T04:18:13;3.90;99.90
9998;DHT22;5038;53.064;8.624;2022-12-07T04:20:41;3.90;99.90
9998;DHT22;5038;53.064;8.624;2022-12-07T04:23:09;3.90;99.90
9998;DHT22;5038;53.064;8.624;2022-12-07T04:25:37;3.90;99.90
9998;DHT22;5038;53.064;8.624;2022-12-07T04:28:05;3.90;99.90
9998;DHT22;5038;53.064;8.624;2022-12-07T04:30:33;3.80;99.90
9998;DHT22;5038;53.064;8.624;2022-12-07T04:33:01;3.80;99.90
9998;DHT22;5038;53.064;8.624;2022-12-07T04:35:30;3.80;99.90
9998;DHT22;5038;53.064;8.624;2022-12-07T04:37:59;3.80;99.90
9998;DHT22;5038;53.064;8.624;2022-12-07T04:40:27;3.80;99.90
9998;DHT22;5038;53.064;8.624;2022-12-07T04:42:55;3.80;99.90
9998;DHT22;5038;53.064;8.624;2022-12-07T04:45:23;3.70;99.90
9998;DHT22;5038;53.064;8.624;2022-12-07T04:47:51;3.70;99.90
9998;DHT22;5038;53.064;8.624;2022-12-07T04:50:19;3.70;99.90
9998;DHT22;5038;53.064;8.624;2022-12-07T04:52:48;3.70;99.90
9998;DHT22;5038;53.064;8.624;2022-12-07T04:55:16;3.70;99.90
9998;DHT22;5038;53.064;8.624;2022-12-07T04:57:44;3.70;99.90
9998;DHT22;5038;53.064;8.624;2022-12-07T05:00:12;3.70;99.90
9998;DHT22;5038;53.064;8.624;2022-12-07T05:02:41;3.70;99.90
9998;DHT22;5038;53.064;8.624;2022-12-07T05:05:09;3.70;99.90
9998;DHT22;5038;53.064;8.624;2022-12-07T05:07:37;3.70;99.90
9998;DHT22;5038;53.064;8.624;2022-12-07T05:10:08;3.70;99.90
9998;DHT22;5038;53.064;8.624;2022-12-07T05:12:36;3.60;99.90
9998;DHT22;5038;53.064;8.624;2022-12-07T05:15:05;3.60;99.90
9998;DHT22;5038;53.064;8.624;2022-12-07T05:17:33;3.60;99.90
9998;DHT22;5038;53.064;8.624;2022-12-07T05:20:01;3.60;99.90
9998;DHT22;5038;53.064;8.624;2022-12-07T05:22:29;3.60;99.90
9998;DHT22;5038;53.064;8.624;2022-12-07T05:24:57;3.60;99.90
9998;DHT22;5038;53.064;8.624;2022-12-07T05:27:27;3.60;99.90
9998;DHT22;5038;53.064;8.624;2022-12-07T05:29:55;3.60;99.90
9998;DHT22;5038;53.064;8.624;2022-12-07T05:32:23;3.60;99.90
9998;DHT22;5038;53.064;8.624;2022-12-07T05:34:51;3.60;99.90
9998;DHT22;5038;53.064;8.624;2022-12-07T05:37:21;3.50;99.90
9998;DHT22;5038;53.064;8.624;2022-12-07T05:39:49;3.50;99.90
9998;DHT22;5038;53.064;8.624;2022-12-07T05:42:17;3.50;99.90
9998;DHT22;5038;53.064;8.624;2022-12-07T05:44:47;3.50;99.90
9998;DHT22;5038;53.064;8.624;2022-12-07T05:47:17;3.50;99.90
9998;DHT22;5038;53.064;8.624;2022-12-07T05:49:45;3.40;99.90
9998;DHT22;5038;53.064;8.624;2022-12-07T05:52:13;3.50;99.90
9998;DHT22;5038;53.064;8.624;2022-12-07T05:54:41;3.50;99.90
9998;DHT22;5038;53.064;8.624;2022-12-07T05:57:10;3.50;99.90
9998;DHT22;5038;53.064;8.624;2022-12-07T05:59:38;3.40;99.90
9998;DHT22;5038;53.064;8.624;2022-12-07T06:02:08;3.40;99.90
9998;DHT22;5038;53.064;8.624;2022-12-07T06:04:39;3.40;99.90
9998;DHT22;5038;53.064;8.624;2022-12-07T06:07:08;3.50;99.90
9998;DHT22;5038;53.064;8.624;2022-12-07T06:09:36;3.40;99.90
9998;DHT22;5038;53.064;8.624;2022-12-07T06:12:05;3.40;99.90
9998;DHT22;5038;53.064;8.624;2022-12-07T06:14:51;3.40;99.90
9998;DHT22;5038;53.064;8.624;2022-12-07T06:17:20;3.50;99.90
9998;DHT22;5038;53.064;8.624;2022-12-07T06:19:48;3.50;99.90
9998;DHT22;5038;53.064;8.624;2022-12-07T06:22:17;3.50;99.90
9998;DHT22;5038;53.064;8.624;2022-12-07T06:24:45;3.50;99.90
9998;DHT22;5038;53.064;8.624;2022-12-07T06:27:13;3.50;99.90
9998;DHT22;5038;53.064;8.624;2022-12-07T06:29:41;3.50;99.90
9998;DHT22;5038;53.064;8.624;2022-12-07T06:32:09;3.50;99.90
9998;DHT22;5038;53.064;8.624;2022-12-07T06:34:39;3.50;99.90
9998;DHT22;5038;53.064;8.624;2022-12-07T06:37:07;3.50;99.90
9998;DHT22;5038;53.064;8.624;2022-12-07T06:39:37;3.50;99.90
9998;DHT22;5038;53.064;8.624;2022-12-07T06:42:05;3.50;99.90
9998;DHT22;5038;53.064;8.624;2022-12-07T06:44:33;3.50;99.90
9998;DHT22;5038;53.064;8.624;2022-12-07T06:47:01;3.50;99.90
9998;DHT22;5038;53.064;8.624;2022-12-07T06:49:52;3.50;99.90
9998;DHT22;5038;53.064;8.624;2022-12-07T06:52:20;3.50;99.90
9998;DHT22;5038;53.064;8.624;2022-12-07T06:54:48;3.60;99.90
9998;DHT22;5038;53.064;8.624;2022-12-07T06:57:19;3.60;99.90
9998;DHT22;5038;53.064;8.624;2022-12-07T06:59:47;3.60;99.90
9998;DHT22;5038;53.064;8.624;2022-12-07T07:02:15;3.60;99.90
9998;DHT22;5038;53.064;8.624;2022-12-07T07:04:44;3.60;99.90
9998;DHT22;5038;53.064;8.624;2022-12-07T07:07:13;3.60;99.90
9998;DHT22;5038;53.064;8.624;2022-12-07T07:09:41;3.60;99.90
9998;DHT22;5038;53.064;8.624;2022-12-07T07:12:11;3.60;99.90
9998;DHT22;5038;53.064;8.624;2022-12-07T07:14:39;3.60;99.90
9998;DHT22;5038;53.064;8.624;2022-12-07T07:17:08;3.60;99.90
9998;DHT22;5038;53.064;8.624;2022-12-07T07:19:36;3.60;99.90
9998;DHT22;5038;53.064;8.624;2022-12-07T07:22:05;3.60;99.90
9998;DHT22;5038;53.064;8.624;2022-12-07T07:24:34;3.60;99.90
9998;DHT22;5038;53.064;8.624;2022-12-07T07:27:02;3.60;99.90
9998;DHT22;5038;53.064;8.624;2022-12-07T07:29:30;3.60;99.90
9998;DHT22;5038;53.064;8.624;2022-12-07T07:31:59;3.60;99.90
9998;DHT22;5038;53.064;8.624;2022-12-07T07:34:32;3.60;99.90
9998;DHT22;5038;53.064;8.624;2022-12-07T07:37:01;3.70;99.90
9998;DHT22;5038;53.064;8.624;2022-12-07T07:39:29;3.60;99.90
9998;DHT22;5038;53.064;8.624;2022-12-07T07:41:58;3.60;99.90
9998;DHT22;5038;53.064;8.624;2022-12-07T07:44:27;3.60;99.90
9998;DHT22;5038;53.064;8.624;2022-12-07T07:47:01;3.60;99.90
9998;DHT22;5038;53.064;8.624;2022-12-07T07:49:29;3.50;99.90
9998;DHT22;5038;53.064;8.624;2022-12-07T07:51:57;3.50;99.90
9998;DHT22;5038;53.064;8.624;2022-12-07T07:54:25;3.50;99.90
9998;DHT22;5038;53.064;8.624;2022-12-07T07:56:53;3.50;99.90
9998;DHT22;5038;53.064;8.624;2022-12-07T07:59:23;3.50;99.90
9998;DHT22;5038;53.064;8.624;2022-12-07T08:01:51;3.50;99.90
9998;DHT22;5038;53.064;8.624;2022-12-07T08:04:23;3.50;99.90
9998;DHT22;5038;53.064;8.624;2022-12-07T08:06:51;3.50;99.90
9998;DHT22;5038;53.064;8.624;2022-12-07T08:09:19;3.50;99.90
9998;DHT22;5038;53.064;8.624;2022-12-07T08:11:47;3.50;99.90
9998;DHT22;5038;53.064;8.624;2022-12-07T08:14:15;3.50;99.90
9998;DHT22;5038;53.064;8.624;2022-12-07T08:16:45;3.50;99.90
9998;DHT22;5038;53.064;8.624;2022-12-07T08:19:13;3.50;99.90
9998;DHT22;5038;53.064;8.624;2022-12-07T08:21:41;3.50;99.90
9998;DHT22;5038;53.064;8.624;2022-12-07T08:24:09;3.50;99.90
9998;DHT22;5038;53.064;8.624;2022-12-07T08:26:37;3.50;99.90
9998;DHT22;5038;53.064;8.624;2022-12-07T08:29:05;3.50;99.90
9998;DHT22;5038;53.064;8.624;2022-12-07T08:31:34;3.50;99.90
9998;DHT22;5038;53.064;8.624;2022-12-07T08:34:03;3.60;99.90
9998;DHT22;5038;53.064;8.624;2022-12-07T08:36:31;3.60;99.90
9998;DHT22;5038;53.064;8.624;2022-12-07T08:38:59;3.60;99.90
9998;DHT22;5038;53.064;8.624;2022-12-07T08:41:47;3.60;99.90
9998;DHT22;5038;53.064;8.624;2022-12-07T08:44:15;3.60;99.90
9998;DHT22;5038;53.064;8.624;2022-12-07T08:46:47;3.60;99.90
9998;DHT22;5038;53.064;8.624;2022-12-07T08:49:20;3.60;99.90
9998;DHT22;5038;53.064;8.624;2022-12-07T08:51:50;3.60;99.90
9998;DHT22;5038;53.064;8.624;2022-12-07T08:54:19;3.60;99.90
9998;DHT22;5038;53.064;8.624;2022-12-07T08:56:47;3.70;99.90
9998;DHT22;5038;53.064;8.624;2022-12-07T08:59:25;3.70;99.90
9998;DHT22;5038;53.064;8.624;2022-12-07T09:01:54;3.60;99.90
9998;DHT22;5038;53.064;8.624;2022-12-07T09:04:24;3.70;99.90
9998;DHT22;5038;53.064;8.624;2022-12-07T09:06:52;3.70;99.90
9998;DHT22;5038;53.064;8.624;2022-12-07T09:09:21;3.70;99.90
9998;DHT22;5038;53.064;8.624;2022-12-07T09:11:49;3.70;99.90
9998;DHT22;5038;53.064;8.624;2022-12-07T09:14:17;3.70;99.90
9998;DHT22;5038;53.064;8.624;2022-12-07T09:16:46;3.70;99.90
9998;DHT22;5038;53.064;8.624;2022-12-07T09:19:14;3.80;99.90
9998;DHT22;5038;53.064;8.624;2022-12-07T09:21:43;3.80;99.90
9998;DHT22;5038;53.064;8.624;2022-12-07T09:24:12;3.80;99.90
9998;DHT22;5038;53.064;8.624;2022-12-07T09:26:42;3.80;99.90
9998;DHT22;5038;53.064;8.624;2022-12-07T09:29:11;3.80;99.90
9998;DHT22;5038;53.064;8.624;2022-12-07T09:31:40;3.80;99.90
9998;DHT22;5038;53.064;8.624;2022-12-07T09:34:08;3.90;99.90
9998;DHT22;5038;53.064;8.624;2022-12-07T09:36:36;3.90;99.90
9998;DHT22;5038;53.064;8.624;2022-12-07T09:39:06;3.90;99.90
9998;DHT22;5038;53.064;8.624;2022-12-07T09:41:37;3.90;99.90
9998;DHT22;5038;53.064;8.624;2022-12-07T09:44:10;4.00;99.90
9998;DHT22;5038;53.064;8.624;2022-12-07T09:46:41;4.00;99.90
9998;DHT22;5038;53.064;8.624;2022-12-07T09:49:12;4.00;99.90
9998;DHT22;5038;53.064;8.624;2022-12-07T09:51:41;3.90;99.90
9998;DHT22;5038;53.064;8.624;2022-12-07T09:54:13;3.90;99.90
9998;DHT22;5038;53.064;8.624;2022-12-07T09:56:41;4.00;99.90
9998;DHT22;5038;53.064;8.624;2022-12-07T09:59:15;4.00;99.90
9998;DHT22;5038;53.064;8.624;2022-12-07T10:01:47;4.00;99.90
9998;DHT22;5038;53.064;8.624;2022-12-07T10:04:18;4.00;99.90
9998;DHT22;5038;53.064;8.624;2022-12-07T10:06:48;4.00;99.90
9998;DHT22;5038;53.064;8.624;2022-12-07T10:09:21;4.10;99.90
9998;DHT22;5038;53.064;8.624;2022-12-07T10:11:59;4.10;99.90
9998;DHT22;5038;53.064;8.624;2022-12-07T10:14:31;4.10;99.90
9998;DHT22;5038;53.064;8.624;2022-12-07T10:17:33;4.10;99.90
9998;DHT22;5038;53.064;8.624;2022-12-07T10:20:15;4.10;99.90
9998;DHT22;5038;53.064;8.624;2022-12-07T10:22:58;4.10;99.90
9998;DHT22;5038;53.064;8.624;2022-12-07T10:25:31;4.10;99.90
9998;DHT22;5038;53.064;8.624;2022-12-07T10:28:10;4.10;99.90
9998;DHT22;5038;53.064;8.624;2022-12-07T10:30:50;4.10;99.90
9998;DHT22;5038;53.064;8.624;2022-12-07T10:33:31;4.10;99.90
9998;DHT22;5038;53.064;8.624;2022-12-07T10:36:01;4.20;99.90
9998;DHT22;5038;53.064;8.624;2022-12-07T10:38:44;4.20;99.90
9998;DHT22;5038;53.064;8.624;2022-12-07T10:41:14;4.20;99.90
9998;DHT22;5038;53.064;8.624;2022-12-07T10:43:51;4.30;99.90
9998;DHT22;5038;53.064;8.624;2022-12-07T10:46:40;4.30;99.90
9998;DHT22;5038;53.064;8.624;2022-12-07T10:52:09;4.40;99.90
9998;DHT22;5038;53.064;8.624;2022-12-07T10:54:47;4.40;99.90
9998;DHT22;5038;53.064;8.624;2022-12-07T10:57:26;4.40;99.90
9998;DHT22;5038;53.064;8.624;2022-12-07T11:00:01;4.40;99.90
9998;DHT22;5038;53.064;8.624;2022-12-07T11:02:49;4.40;99.90
9998;DHT22;5038;53.064;8.624;2022-12-07T11:05:26;4.40;99.90
9998;DHT22;5038;53.064;8.624;2022-12-07T11:08:02;4.50;99.90
9998;DHT22;5038;53.064;8.624;2022-12-07T11:10:40;4.50;99.90
9998;DHT22;5038;53.064;8.624;2022-12-07T11:13:27;4.50;99.90
9998;DHT22;5038;53.064;8.624;2022-12-07T11:16:14;4.50;99.90
9998;DHT22;5038;53.064;8.624;2022-12-07T11:18:52;4.60;99.90
9998;DHT22;5038;53.064;8.624;2022-12-07T11:21:25;4.60;99.90
9998;DHT22;5038;53.064;8.624;2022-12-07T11:24:01;4.60;99.90
9998;DHT22;5038;53.064;8.624;2022-12-07T11:26:46;4.60;99.90
9998;DHT22;5038;53.064;8.624;2022-12-07T11:29:46;4.60;99.90
9998;DHT22;5038;53.064;8.624;2022-12-07T11:32:22;4.70;99.90
9998;DHT22;5038;53.064;8.624;2022-12-07T11:35:01;4.70;99.90
9998;DHT22;5038;53.064;8.624;2022-12-07T11:37:34;4.70;99.90
9998;DHT22;5038;53.064;8.624;2022-12-07T11:40:14;4.70;99.90
9998;DHT22;5038;53.064;8.624;2022-12-07T11:42:49;4.80;99.90
9998;DHT22;5038;53.064;8.624;2022-12-07T11:45:24;4.80;99.90
9998;DHT22;5038;53.064;8.624;2022-12-07T11:47:57;4.80;99.90
9998;DHT22;5038;53.064;8.624;2022-12-07T11:50:32;4.90;99.90
9998;DHT22;5038;53.064;8.624;2022-12-07T11:53:03;4.90;99.90
9998;DHT22;5038;53.064;8.624;2022-12-07T11:55:41;4.90;99.90
9998;DHT22;5038;53.064;8.624;2022-12-07T11:58:29;5.00;99.90
9998;DHT22;5038;53.064;8.624;2022-12-07T12:01:14;5.00;99.90
9998;DHT22;5038;53.064;8.624;2022-12-07T12:03:47;5.10;99.90
9998;DHT22;5038;53.064;8.624;2022-12-07T12:06:20;5.10;99.90
9998;DHT22;5038;53.064;8.624;2022-12-07T12:08:53;5.10;99.90
9998;DHT22;5038;53.064;8.624;2022-12-07T12:11:56;5.20;99.90
9998;DHT22;5038;53.064;8.624;2022-12-07T12:14:56;5.20;99.90
9998;DHT22;5038;53.064;8.624;2022-12-07T12:17:50;5.20;99.90
9998;DHT22;5038;53.064;8.624;2022-12-07T12:20:23;5.30;99.90
9998;DHT22;5038;53.064;8.624;2022-12-07T12:22:59;5.30;99.90
9998;DHT22;5038;53.064;8.624;2022-12-07T12:25:34;5.30;99.90
9998;DHT22;5038;53.064;8.624;2022-12-07T12:28:04;5.30;99.90
9998;DHT22;5038;53.064;8.624;2022-12-07T12:30:34;5.40;99.90
9998;DHT22;5038;53.064;8.624;2022-12-07T12:33:12;5.40;99.90
9998;DHT22;5038;53.064;8.624;2022-12-07T12:35:41;5.40;99.90
9998;DHT22;5038;53.064;8.624;2022-12-07T12:38:28;5.40;99.90
9998;DHT22;5038;53.064;8.624;2022-12-07T12:40:57;5.40;99.90
9998;DHT22;5038;53.064;8.624;2022-12-07T12:43:47;5.40;99.90
9998;DHT22;5038;53.064;8.624;2022-12-07T12:46:50;5.40;99.90
9998;DHT22;5038;53.064;8.624;2022-12-07T12:49:41;5.40;99.90
9998;DHT22;5038;53.064;8.624;2022-12-07T12:56:07;5.40;99.90
9998;DHT22;5038;53.064;8.624;2022-12-07T12:58:43;5.50;99.90
9998;DHT22;5038;53.064;8.624;2022-12-07T13:01:39;5.50;99.90
9998;DHT22;5038;53.064;8.624;2022-12-07T13:04:50;5.50;99.90
9998;DHT22;5038;53.064;8.624;2022-12-07T13:07:54;5.50;99.90
9998;DHT22;5038;53.064;8.624;2022-12-07T13:10:42;5.60;99.90
9998;DHT22;5038;53.064;8.624;2022-12-07T13:13:31;5.60;99.90
9998;DHT22;5038;53.064;8.624;2022-12-07T13:16:37;5.60;99.90
9998;DHT22;5038;53.064;8.624;2022-12-07T13:22:53;5.60;99.90
9998;DHT22;5038;53.064;8.624;2022-12-07T13:25:36;5.70;99.90
9998;DHT22;5038;53.064;8.624;2022-12-07T13:28:14;5.70;99.90
9998;DHT22;5038;53.064;8.624;2022-12-07T13:30:46;5.70;99.90
9998;DHT22;5038;53.064;8.624;2022-12-07T13:33:17;5.70;99.90
9998;DHT22;5038;53.064;8.624;2022-12-07T13:35:46;5.70;99.90
9998;DHT22;5038;53.064;8.624;2022-12-07T13:38:29;5.60;99.90
9998;DHT22;5038;53.064;8.624;2022-12-07T13:41:02;5.60;99.90
9998;DHT22;5038;53.064;8.624;2022-12-07T13:43:30;5.60;99.90
9998;DHT22;5038;53.064;8.624;2022-12-07T13:45:59;5.50;99.90
9998;DHT22;5038;53.064;8.624;2022-12-07T13:48:31;5.40;99.90
9998;DHT22;5038;53.064;8.624;2022-12-07T13:51:01;5.40;99.90
9998;DHT22;5038;53.064;8.624;2022-12-07T13:53:31;5.30;99.90
9998;DHT22;5038;53.064;8.624;2022-12-07T13:56:01;5.20;99.90
9998;DHT22;5038;53.064;8.624;2022-12-07T13:58:31;5.20;99.90
9998;DHT22;5038;53.064;8.624;2022-12-07T14:01:00;5.10;99.90
9998;DHT22;5038;53.064;8.624;2022-12-07T14:03:31;5.10;99.90
9998;DHT22;5038;53.064;8.624;2022-12-07T14:06:12;5.10;99.90
9998;DHT22;5038;53.064;8.624;2022-12-07T14:08:44;5.00;99.90
9998;DHT22;5038;53.064;8.624;2022-12-07T14:11:17;5.00;99.90
9998;DHT22;5038;53.064;8.624;2022-12-07T14:13:57;5.00;99.90
9998;DHT22;5038;53.064;8.624;2022-12-07T14:16:28;5.00;99.90
9998;DHT22;5038;53.064;8.624;2022-12-07T14:18:59;5.00;99.90
9998;DHT22;5038;53.064;8.624;2022-12-07T14:21:28;5.00;99.90
9998;DHT22;5038;53.064;8.624;2022-12-07T14:24:19;4.90;99.90
9998;DHT22;5038;53.064;8.624;2022-12-07T14:26:48;4.90;99.90
9998;DHT22;5038;53.064;8.624;2022-12-07T14:29:22;4.80;99.90
9998;DHT22;5038;53.064;8.624;2022-12-07T14:31:51;4.80;99.90
9998;DHT22;5038;53.064;8.624;2022-12-07T14:34:20;4.80;99.90
9998;DHT22;5038;53.064;8.624;2022-12-07T14:36:48;4.70;99.90
9998;DHT22;5038;53.064;8.624;2022-12-07T14:39:20;4.70;99.90
9998;DHT22;5038;53.064;8.624;2022-12-07T14:41:49;4.70;99.90
9998;DHT22;5038;53.064;8.624;2022-12-07T14:44:21;4.70;99.90
9998;DHT22;5038;53.064;8.624;2022-12-07T14:46:55;4.60;99.90
9998;DHT22;5038;53.064;8.624;2022-12-07T14:49:43;4.60;99.90
9998;DHT22;5038;53.064;8.624;2022-12-07T14:52:14;4.60;99.90
9998;DHT22;5038;53.064;8.624;2022-12-07T14:55:07;4.60;99.90
9998;DHT22;5038;53.064;8.624;2022-12-07T14:57:40;4.60;99.90
9998;DHT22;5038;53.064;8.624;2022-12-07T15:00:13;4.50;99.90
9998;DHT22;5038;53.064;8.624;2022-12-07T15:02:43;4.50;99.90
9998;DHT22;5038;53.064;8.624;2022-12-07T15:05:12;4.50;99.90
9998;DHT22;5038;53.064;8.624;2022-12-07T15:07:43;4.50;99.90
9998;DHT22;5038;53.064;8.624;2022-12-07T15:10:17;4.50;99.90
9998;DHT22;5038;53.064;8.624;2022-12-07T15:12:50;4.50;99.90
9998;DHT22;5038;53.064;8.624;2022-12-07T15:15:18;4.50;99.90
9998;DHT22;5038;53.064;8.624;2022-12-07T15:17:46;4.40;99.90
9998;DHT22;5038;53.064;8.624;2022-12-07T15:20:15;4.40;99.90
9998;DHT22;5038;53.064;8.624;2022-12-07T15:22:44;4.40;99.90
9998;DHT22;5038;53.064;8.624;2022-12-07T15:25:14;4.30;99.90
9998;DHT22;5038;53.064;8.624;2022-12-07T15:27:45;4.30;99.90
9998;DHT22;5038;53.064;8.624;2022-12-07T15:30:13;4.30;99.90
9998;DHT22;5038;53.064;8.624;2022-12-07T15:32:41;4.20;99.90
9998;DHT22;5038;53.064;8.624;2022-12-07T15:35:09;4.20;99.90
9998;DHT22;5038;53.064;8.624;2022-12-07T15:37:38;4.10;99.90
9998;DHT22;5038;53.064;8.624;2022-12-07T15:40:07;4.10;99.90
9998;DHT22;5038;53.064;8.624;2022-12-07T15:42:37;4.10;99.90
9998;DHT22;5038;53.064;8.624;2022-12-07T15:45:06;4.00;99.90
9998;DHT22;5038;53.064;8.624;2022-12-07T15:47:36;4.00;99.90
9998;DHT22;5038;53.064;8.624;2022-12-07T15:50:24;3.90;99.90
9998;DHT22;5038;53.064;8.624;2022-12-07T15:52:52;3.90;99.90
9998;DHT22;5038;53.064;8.624;2022-12-07T15:55:21;3.80;99.90
9998;DHT22;5038;53.064;8.624;2022-12-07T15:57:50;3.80;99.90
9998;DHT22;5038;53.064;8.624;2022-12-07T16:00:19;3.80;99.90
9998;DHT22;5038;53.064;8.624;2022-12-07T16:02:47;3.80;99.90
9998;DHT22;5038;53.064;8.624;2022-12-07T16:05:15;3.80;99.90
9998;DHT22;5038;53.064;8.624;2022-12-07T16:07:43;3.70;99.90
9998;DHT22;5038;53.064;8.624;2022-12-07T16:10:13;3.70;99.90
9998;DHT22;5038;53.064;8.624;2022-12-07T16:12:41;3.70;99.90
9998;DHT22;5038;53.064;8.624;2022-12-07T16:15:11;3.70;99.90
9998;DHT22;5038;53.064;8.624;2022-12-07T16:17:39;3.70;99.90
9998;DHT22;5038;53.064;8.624;2022-12-07T16:20:09;3.60;99.90
9998;DHT22;5038;53.064;8.624;2022-12-07T16:22:37;3.60;99.90
9998;DHT22;5038;53.064;8.624;2022-12-07T16:25:05;3.60;99.90
9998;DHT22;5038;53.064;8.624;2022-12-07T16:27:34;3.60;99.90
9998;DHT22;5038;53.064;8.624;2022-12-07T16:30:03;3.60;99.90
9998;DHT22;5038;53.064;8.624;2022-12-07T16:32:33;3.60;99.90
9998;DHT22;5038;53.064;8.624;2022-12-07T16:35:01;3.60;99.90
9998;DHT22;5038;53.064;8.624;2022-12-07T16:37:29;3.60;99.90
9998;DHT22;5038;53.064;8.624;2022-12-07T16:39:58;3.60;99.90
9998;DHT22;5038;53.064;8.624;2022-12-07T16:42:26;3.60;99.90
9998;DHT22;5038;53.064;8.624;2022-12-07T16:44:54;3.60;99.90
9998;DHT22;5038;53.064;8.624;2022-12-07T16:47:22;3.70;99.90
9998;DHT22;5038;53.064;8.624;2022-12-07T16:49:51;3.70;99.90
9998;DHT22;5038;53.064;8.624;2022-12-07T16:52:20;3.70;99.90
9998;DHT22;5038;53.064;8.624;2022-12-07T16:54:49;3.70;99.90
9998;DHT22;5038;53.064;8.624;2022-12-07T16:57:17;3.70;99.90
9998;DHT22;5038;53.064;8.624;2022-12-07T16:59:50;3.70;99.90
9998;DHT22;5038;53.064;8.624;2022-12-07T17:02:19;3.70;99.90
9998;DHT22;5038;53.064;8.624;2022-12-07T17:04:47;3.70;99.90